sensor_id;sensor_type;location;lat;lon;timestamp;temperature;humidity
78448;SHT31;67742;51.972;5.682;2024-03-23T00:53:14;11.6;67.0
78448;SHT31;67742;51.972;5.682;2024-03-23T00:55:44;11.5;66.9
78448;SHT31;67742;51.972;5.682;2024-03-23T00:58:13;11.5;66.9
78448;SHT31;67742;51.972;5.682;2024-03-23T01:00:42;11.5;66.9
78448;SHT31;67742;51.972;5.682;2024-03-23T01:03:11;11.5;67.0
78448;SHT31;67742;51.972;5.682;2024-03-23T01:05:39;11.5;67.0
78448;SHT31;67742;51.972;5.682;2024-03-23T01:08:08;11.5;66.9
78448;SHT31;67742;51.972;5.682;2024-03-23T01:10:36;11.5;67.0
78448;SHT31;67742;51.972;5.682;2024-03-23T01:13:05;11.4;67.2
78448;SHT31;67742;51.972;5.682;2024-03-23T01:15:34;11.4;67.4
78448;SHT31;67742;51.972;5.682;2024-03-23T01:18:02;11.4;67.7
78448;SHT31;67742;51.972;5.682;2024-03-23T01:20:31;11.4;67.5
78448;SHT31;67742;51.972;5.682;2024-03-23T01:22:59;11.4;67.4
78448;SHT31;67742;51.972;5.682;2024-03-23T01:25:27;11.4;67.6
78448;SHT31;67742;51.972;5.682;2024-03-23T01:27:56;11.4;67.8
78448;SHT31;67742;51.972;5.682;2024-03-23T01:30:25;11.4;67.7
78448;SHT31;67742;51.972;5.682;2024-03-23T01:32:54;11.4;67.7
78448;SHT31;67742;51.972;5.682;2024-03-23T01:35:22;11.4;67.8
78448;SHT31;67742;51.972;5.682;2024-03-23T01:37:51;11.4;67.8
78448;SHT31;67742;51.972;5.682;2024-03-23T01:40:20;11.4;67.7
78448;SHT31;67742;51.972;5.682;2024-03-23T01:42:57;11.4;67.8
78448;SHT31;67742;51.972;5.682;2024-03-23T01:45:26;11.4;67.8
78448;SHT31;67742;51.972;5.682;2024-03-23T01:47:56;11.4;68.0
78448;SHT31;67742;51.972;5.682;2024-03-23T01:50:25;11.3;68.0
78448;SHT31;67742;51.972;5.682;2024-03-23T01:52:54;11.3;68.3
78448;SHT31;67742;51.972;5.682;2024-03-23T01:55:23;11.3;68.2
78448;SHT31;67742;51.972;5.682;2024-03-23T01:57:53;11.3;68.2
78448;SHT31;67742;51.972;5.682;2024-03-23T02:00:22;11.3;68.1
78448;SHT31;67742;51.972;5.682;2024-03-23T02:02:52;11.3;68.2
78448;SHT31;67742;51.972;5.682;2024-03-23T02:05:24;11.3;68.6
78448;SHT31;67742;51.972;5.682;2024-03-23T02:07:54;11.4;68.3
78448;SHT31;67742;51.972;5.682;2024-03-23T02:10:23;11.4;68.1
78448;SHT31;67742;51.972;5.682;2024-03-23T02:12:52;11.4;68.2
78448;SHT31;67742;51.972;5.682;2024-03-23T02:15:20;11.4;68.0
78448;SHT31;67742;51.972;5.682;2024-03-23T02:17:49;11.4;68.1
78448;SHT31;67742;51.972;5.682;2024-03-23T02:20:19;11.4;68.0
78448;SHT31;67742;51.972;5.682;2024-03-23T02:22:52;11.4;67.7
78448;SHT31;67742;51.972;5.682;2024-03-23T02:25:20;11.4;67.5
78448;SHT31;67742;51.972;5.682;2024-03-23T02:27:49;11.4;67.4
78448;SHT31;67742;51.972;5.682;2024-03-23T02:30:19;11.4;67.3
78448;SHT31;67742;51.972;5.682;2024-03-23T02:32:48;11.4;67.3
78448;SHT31;67742;51.972;5.682;2024-03-23T02:35:16;11.4;67.2
78448;SHT31;67742;51.972;5.682;2024-03-23T02:37:46;11.3;67.2
78448;SHT31;67742;51.972;5.682;2024-03-23T02:40:15;11.3;67.2
78448;SHT31;67742;51.972;5.682;2024-03-23T02:42:43;11.3;67.1
78448;SHT31;67742;51.972;5.682;2024-03-23T02:45:14;11.3;67.0
78448;SHT31;67742;51.972;5.682;2024-03-23T02:47:43;11.3;67.2
78448;SHT31;67742;51.972;5.682;2024-03-23T02:50:12;11.2;67.2
78448;SHT31;67742;51.972;5.682;2024-03-23T02:52:41;11.2;67.1
78448;SHT31;67742;51.972;5.682;2024-03-23T02:55:10;11.2;67.1
78448;SHT31;67742;51.972;5.682;2024-03-23T02:57:39;11.2;67.1
78448;SHT31;67742;51.972;5.682;2024-03-23T03:00:11;11.1;66.9
78448;SHT31;67742;51.972;5.682;2024-03-23T03:02:40;11.1;67.2
78448;SHT31;67742;51.972;5.682;2024-03-23T03:05:08;11.0;67.2
78448;SHT31;67742;51.972;5.682;2024-03-23T03:07:37;11.0;67.3
78448;SHT31;67742;51.972;5.682;2024-03-23T03:10:07;11.0;67.2
78448;SHT31;67742;51.972;5.682;2024-03-23T03:12:37;10.9;67.2
78448;SHT31;67742;51.972;5.682;2024-03-23T03:15:07;10.9;67.3
78448;SHT31;67742;51.972;5.682;2024-03-23T03:17:36;10.9;67.3
78448;SHT31;67742;51.972;5.682;2024-03-23T03:20:05;10.8;67.2
78448;SHT31;67742;51.972;5.682;2024-03-23T03:22:34;10.8;67.4
78448;SHT31;67742;51.972;5.682;2024-03-23T03:25:02;10.8;67.3
78448;SHT31;67742;51.972;5.682;2024-03-23T03:27:32;10.8;67.7
78448;SHT31;67742;51.972;5.682;2024-03-23T03:30:01;10.7;67.7
78448;SHT31;67742;51.972;5.682;2024-03-23T03:32:32;10.7;67.6
78448;SHT31;67742;51.972;5.682;2024-03-23T03:35:00;10.7;67.6
78448;SHT31;67742;51.972;5.682;2024-03-23T03:37:29;10.6;67.7
78448;SHT31;67742;51.972;5.682;2024-03-23T03:39:57;10.6;67.5
78448;SHT31;67742;51.972;5.682;2024-03-23T03:42:26;10.6;67.4
78448;SHT31;67742;51.972;5.682;2024-03-23T03:44:54;10.6;67.3
78448;SHT31;67742;51.972;5.682;2024-03-23T03:47:22;10.5;67.2
78448;SHT31;67742;51.972;5.682;2024-03-23T03:49:51;10.5;66.9
78448;SHT31;67742;51.972;5.682;2024-03-23T03:52:19;10.5;66.9
78448;SHT31;67742;51.972;5.682;2024-03-23T03:54:48;10.5;66.9
78448;SHT31;67742;51.972;5.682;2024-03-23T03:57:17;10.5;66.7
78448;SHT31;67742;51.972;5.682;2024-03-23T03:59:45;10.5;66.6
78448;SHT31;67742;51.972;5.682;2024-03-23T04:02:14;10.5;66.6
78448;SHT31;67742;51.972;5.682;2024-03-23T04:04:42;10.4;66.3
78448;SHT31;67742;51.972;5.682;2024-03-23T04:07:11;10.4;66.1
78448;SHT31;67742;51.972;5.682;2024-03-23T04:09:40;10.4;66.0
78448;SHT31;67742;51.972;5.682;2024-03-23T04:12:09;10.4;65.9
78448;SHT31;67742;51.972;5.682;2024-03-23T04:14:37;10.5;65.8
78448;SHT31;67742;51.972;5.682;2024-03-23T04:17:06;10.5;65.5
78448;SHT31;67742;51.972;5.682;2024-03-23T04:19:35;10.5;65.3
78448;SHT31;67742;51.972;5.682;2024-03-23T04:22:04;10.5;65.2
78448;SHT31;67742;51.972;5.682;2024-03-23T04:24:32;10.5;64.7
78448;SHT31;67742;51.972;5.682;2024-03-23T04:27:01;10.4;64.7
78448;SHT31;67742;51.972;5.682;2024-03-23T04:29:29;10.4;64.6
78448;SHT31;67742;51.972;5.682;2024-03-23T04:31:58;10.4;64.4
78448;SHT31;67742;51.972;5.682;2024-03-23T04:34:28;10.4;64.3
78448;SHT31;67742;51.972;5.682;2024-03-23T04:36:56;10.4;63.9
78448;SHT31;67742;51.972;5.682;2024-03-23T04:39:26;10.3;64.2
78448;SHT31;67742;51.972;5.682;2024-03-23T04:41:55;10.3;64.2
78448;SHT31;67742;51.972;5.682;2024-03-23T04:44:23;10.2;64.3
78448;SHT31;67742;51.972;5.682;2024-03-23T04:46:52;10.2;64.2
78448;SHT31;67742;51.972;5.682;2024-03-23T04:49:20;10.2;64.5
78448;SHT31;67742;51.972;5.682;2024-03-23T04:51:49;10.2;64.2
78448;SHT31;67742;51.972;5.682;2024-03-23T04:54:17;10.1;64.5
78448;SHT31;67742;51.972;5.682;2024-03-23T04:56:46;10.1;64.6
78448;SHT31;67742;51.972;5.682;2024-03-23T04:59:15;10.1;64.3
78448;SHT31;67742;51.972;5.682;2024-03-23T05:01:43;10.1;64.4
78448;SHT31;67742;51.972;5.682;2024-03-23T05:04:14;10.1;64.3
78448;SHT31;67742;51.972;5.682;2024-03-23T05:06:42;10.1;64.4
78448;SHT31;67742;51.972;5.682;2024-03-23T05:09:11;10.1;64.5
78448;SHT31;67742;51.972;5.682;2024-03-23T05:11:40;10.0;64.2
78448;SHT31;67742;51.972;5.682;2024-03-23T05:14:08;10.0;64.4
78448;SHT31;67742;51.972;5.682;2024-03-23T05:16:37;10.0;64.0
78448;SHT31;67742;51.972;5.682;2024-03-23T05:19:06;10.0;64.2
78448;SHT31;67742;51.972;5.682;2024-03-23T05:21:34;10.0;64.3
78448;SHT31;67742;51.972;5.682;2024-03-23T05:24:03;9.9;64.2
78448;SHT31;67742;51.972;5.682;2024-03-23T05:26:31;9.9;64.6
78448;SHT31;67742;51.972;5.682;2024-03-23T05:29:00;9.9;64.5
78448;SHT31;67742;51.972;5.682;2024-03-23T05:31:30;9.9;64.1
78448;SHT31;67742;51.972;5.682;2024-03-23T05:34:01;9.8;64.2
78448;SHT31;67742;51.972;5.682;2024-03-23T05:36:30;9.8;64.4
78448;SHT31;67742;51.972;5.682;2024-03-23T05:38:59;9.8;64.4
78448;SHT31;67742;51.972;5.682;2024-03-23T05:41:27;9.8;63.7
78448;SHT31;67742;51.972;5.682;2024-03-23T05:43:56;9.8;63.8
78448;SHT31;67742;51.972;5.682;2024-03-23T05:46:24;9.7;64.0
78448;SHT31;67742;51.972;5.682;2024-03-23T05:48:53;9.7;63.9
78448;SHT31;67742;51.972;5.682;2024-03-23T05:51:27;9.7;64.0
78448;SHT31;67742;51.972;5.682;2024-03-23T05:53:55;9.7;64.0
78448;SHT31;67742;51.972;5.682;2024-03-23T05:56:24;9.6;63.9
78448;SHT31;67742;51.972;5.682;2024-03-23T05:58:53;9.6;63.8
78448;SHT31;67742;51.972;5.682;2024-03-23T06:01:24;9.6;63.9
78448;SHT31;67742;51.972;5.682;2024-03-23T06:03:55;9.5;64.1
78448;SHT31;67742;51.972;5.682;2024-03-23T06:06:25;9.5;64.4
78448;SHT31;67742;51.972;5.682;2024-03-23T06:08:56;9.5;64.5
78448;SHT31;67742;51.972;5.682;2024-03-23T06:11:25;9.5;64.3
78448;SHT31;67742;51.972;5.682;2024-03-23T06:13:55;9.4;64.7
78448;SHT31;67742;51.972;5.682;2024-03-23T06:16:26;9.4;64.7
78448;SHT31;67742;51.972;5.682;2024-03-23T06:18:55;9.4;64.7
78448;SHT31;67742;51.972;5.682;2024-03-23T06:21:25;9.4;65.0
78448;SHT31;67742;51.972;5.682;2024-03-23T06:23:54;9.3;65.7
78448;SHT31;67742;51.972;5.682;2024-03-23T06:26:23;9.3;65.3
78448;SHT31;67742;51.972;5.682;2024-03-23T06:28:51;9.3;65.5
78448;SHT31;67742;51.972;5.682;2024-03-23T06:31:20;9.3;65.8
78448;SHT31;67742;51.972;5.682;2024-03-23T06:33:48;9.3;65.9
78448;SHT31;67742;51.972;5.682;2024-03-23T06:36:17;9.3;65.8
78448;SHT31;67742;51.972;5.682;2024-03-23T06:38:47;9.3;65.8
78448;SHT31;67742;51.972;5.682;2024-03-23T06:41:15;9.3;65.6
78448;SHT31;67742;51.972;5.682;2024-03-23T06:43:44;9.3;65.2
78448;SHT31;67742;51.972;5.682;2024-03-23T06:46:12;9.3;65.2
78448;SHT31;67742;51.972;5.682;2024-03-23T06:48:40;9.3;65.5
78448;SHT31;67742;51.972;5.682;2024-03-23T06:51:11;9.3;65.6
78448;SHT31;67742;51.972;5.682;2024-03-23T06:53:40;9.3;65.8
78448;SHT31;67742;51.972;5.682;2024-03-23T06:56:08;9.4;65.9
78448;SHT31;67742;51.972;5.682;2024-03-23T06:58:37;9.4;65.7
78448;SHT31;67742;51.972;5.682;2024-03-23T07:01:05;9.4;65.4
78448;SHT31;67742;51.972;5.682;2024-03-23T07:03:34;9.4;64.9
78448;SHT31;67742;51.972;5.682;2024-03-23T07:06:03;9.4;65.0
78448;SHT31;67742;51.972;5.682;2024-03-23T07:08:31;9.4;64.7
78448;SHT31;67742;51.972;5.682;2024-03-23T07:11:00;9.4;64.8
78448;SHT31;67742;51.972;5.682;2024-03-23T07:13:28;9.4;65.1
78448;SHT31;67742;51.972;5.682;2024-03-23T07:15:57;9.4;65.3
78448;SHT31;67742;51.972;5.682;2024-03-23T07:18:26;9.5;65.9
78448;SHT31;67742;51.972;5.682;2024-03-23T07:20:56;9.5;66.3
78448;SHT31;67742;51.972;5.682;2024-03-23T07:23:25;9.5;65.4
78448;SHT31;67742;51.972;5.682;2024-03-23T07:26:00;9.5;65.8
78448;SHT31;67742;51.972;5.682;2024-03-23T07:28:29;9.5;66.0
78448;SHT31;67742;51.972;5.682;2024-03-23T07:31:06;9.5;66.3
78448;SHT31;67742;51.972;5.682;2024-03-23T07:33:36;9.5;66.3
78448;SHT31;67742;51.972;5.682;2024-03-23T07:36:05;9.5;66.4
78448;SHT31;67742;51.972;5.682;2024-03-23T07:38:34;9.5;66.6
78448;SHT31;67742;51.972;5.682;2024-03-23T07:41:07;9.5;66.7
78448;SHT31;67742;51.972;5.682;2024-03-23T07:43:36;9.5;66.6
78448;SHT31;67742;51.972;5.682;2024-03-23T07:46:05;9.6;66.8
78448;SHT31;67742;51.972;5.682;2024-03-23T07:48:34;9.6;66.5
78448;SHT31;67742;51.972;5.682;2024-03-23T07:51:04;9.6;66.3
78448;SHT31;67742;51.972;5.682;2024-03-23T07:53:34;9.6;65.6
78448;SHT31;67742;51.972;5.682;2024-03-23T07:56:06;9.7;65.5
78448;SHT31;67742;51.972;5.682;2024-03-23T07:58:34;9.7;65.0
78448;SHT31;67742;51.972;5.682;2024-03-23T08:01:07;9.7;65.3
78448;SHT31;67742;51.972;5.682;2024-03-23T08:03:37;9.8;65.3
78448;SHT31;67742;51.972;5.682;2024-03-23T08:06:10;9.8;64.9
78448;SHT31;67742;51.972;5.682;2024-03-23T08:08:40;9.8;65.4
78448;SHT31;67742;51.972;5.682;2024-03-23T08:11:09;9.8;64.8
78448;SHT31;67742;51.972;5.682;2024-03-23T08:13:39;9.8;64.6
78448;SHT31;67742;51.972;5.682;2024-03-23T08:16:08;9.8;65.1
78448;SHT31;67742;51.972;5.682;2024-03-23T08:18:37;9.8;65.0
78448;SHT31;67742;51.972;5.682;2024-03-23T08:21:08;9.8;64.0
78448;SHT31;67742;51.972;5.682;2024-03-23T08:23:38;9.9;64.5
78448;SHT31;67742;51.972;5.682;2024-03-23T08:26:08;9.9;63.8
78448;SHT31;67742;51.972;5.682;2024-03-23T08:28:37;9.9;63.6
78448;SHT31;67742;51.972;5.682;2024-03-23T08:31:08;9.9;62.9
78448;SHT31;67742;51.972;5.682;2024-03-23T08:33:37;9.9;62.6
78448;SHT31;67742;51.972;5.682;2024-03-23T08:36:07;10.0;62.1
78448;SHT31;67742;51.972;5.682;2024-03-23T08:38:38;10.0;61.4
78448;SHT31;67742;51.972;5.682;2024-03-23T08:41:08;10.0;61.0
78448;SHT31;67742;51.972;5.682;2024-03-23T08:43:39;10.1;60.9
78448;SHT31;67742;51.972;5.682;2024-03-23T08:46:09;10.1;60.8
78448;SHT31;67742;51.972;5.682;2024-03-23T08:48:39;10.1;60.3
78448;SHT31;67742;51.972;5.682;2024-03-23T08:51:11;10.1;60.2
78448;SHT31;67742;51.972;5.682;2024-03-23T08:53:40;10.2;60.7
78448;SHT31;67742;51.972;5.682;2024-03-23T08:56:10;10.2;61.1
78448;SHT31;67742;51.972;5.682;2024-03-23T08:58:39;10.2;62.0
78448;SHT31;67742;51.972;5.682;2024-03-23T09:01:10;10.2;62.9
78448;SHT31;67742;51.972;5.682;2024-03-23T09:03:40;10.2;63.0
78448;SHT31;67742;51.972;5.682;2024-03-23T09:06:09;10.2;63.3
78448;SHT31;67742;51.972;5.682;2024-03-23T09:08:39;10.1;61.8
78448;SHT31;67742;51.972;5.682;2024-03-23T09:11:09;10.1;61.1
78448;SHT31;67742;51.972;5.682;2024-03-23T09:13:39;10.0;61.9
78448;SHT31;67742;51.972;5.682;2024-03-23T09:16:08;9.9;62.2
78448;SHT31;67742;51.972;5.682;2024-03-23T09:18:37;9.9;62.0
78448;SHT31;67742;51.972;5.682;2024-03-23T09:21:11;9.8;62.1
78448;SHT31;67742;51.972;5.682;2024-03-23T09:23:43;9.8;62.5
78448;SHT31;67742;51.972;5.682;2024-03-23T09:26:12;9.8;61.9
78448;SHT31;67742;51.972;5.682;2024-03-23T09:28:40;9.8;61.6
78448;SHT31;67742;51.972;5.682;2024-03-23T09:31:09;9.8;63.1
78448;SHT31;67742;51.972;5.682;2024-03-23T09:33:42;9.8;63.3
78448;SHT31;67742;51.972;5.682;2024-03-23T09:36:11;9.8;62.9
78448;SHT31;67742;51.972;5.682;2024-03-23T09:38:42;9.8;62.8
78448;SHT31;67742;51.972;5.682;2024-03-23T09:41:11;9.9;63.5
78448;SHT31;67742;51.972;5.682;2024-03-23T09:43:40;10.0;62.7
78448;SHT31;67742;51.972;5.682;2024-03-23T09:46:10;10.0;62.7
78448;SHT31;67742;51.972;5.682;2024-03-23T09:48:39;10.1;63.7
78448;SHT31;67742;51.972;5.682;2024-03-23T09:51:07;10.2;61.6
78448;SHT31;67742;51.972;5.682;2024-03-23T09:53:37;10.3;61.6
78448;SHT31;67742;51.972;5.682;2024-03-23T09:56:07;10.4;62.1
78448;SHT31;67742;51.972;5.682;2024-03-23T09:58:36;10.5;59.3
78448;SHT31;67742;51.972;5.682;2024-03-23T10:01:05;10.6;58.3
78448;SHT31;67742;51.972;5.682;2024-03-23T10:03:46;10.7;56.3
78448;SHT31;67742;51.972;5.682;2024-03-23T10:06:23;10.8;56.8
78448;SHT31;67742;51.972;5.682;2024-03-23T10:08:53;10.9;58.0
78448;SHT31;67742;51.972;5.682;2024-03-23T10:11:22;11.0;56.0
78448;SHT31;67742;51.972;5.682;2024-03-23T10:13:52;11.1;56.2
78448;SHT31;67742;51.972;5.682;2024-03-23T10:16:24;11.2;55.0
78448;SHT31;67742;51.972;5.682;2024-03-23T10:18:53;11.3;56.8
78448;SHT31;67742;51.972;5.682;2024-03-23T10:21:22;11.3;56.3
78448;SHT31;67742;51.972;5.682;2024-03-23T10:23:50;11.3;56.6
78448;SHT31;67742;51.972;5.682;2024-03-23T10:26:21;11.3;57.5
78448;SHT31;67742;51.972;5.682;2024-03-23T10:28:56;11.3;56.3
78448;SHT31;67742;51.972;5.682;2024-03-23T10:31:29;11.2;55.0
78448;SHT31;67742;51.972;5.682;2024-03-23T10:33:58;11.1;55.8
78448;SHT31;67742;51.972;5.682;2024-03-23T10:36:29;11.1;55.9
78448;SHT31;67742;51.972;5.682;2024-03-23T10:39:01;11.0;56.2
78448;SHT31;67742;51.972;5.682;2024-03-23T10:41:32;11.0;56.5
78448;SHT31;67742;51.972;5.682;2024-03-23T10:44:04;11.0;56.7
78448;SHT31;67742;51.972;5.682;2024-03-23T10:46:33;11.0;57.3
78448;SHT31;67742;51.972;5.682;2024-03-23T10:49:03;11.0;54.2
78448;SHT31;67742;51.972;5.682;2024-03-23T10:51:34;11.0;53.2
78448;SHT31;67742;51.972;5.682;2024-03-23T10:54:04;11.0;54.8
78448;SHT31;67742;51.972;5.682;2024-03-23T10:56:41;11.1;55.1
78448;SHT31;67742;51.972;5.682;2024-03-23T10:59:11;11.1;56.1
78448;SHT31;67742;51.972;5.682;2024-03-23T11:01:53;11.2;53.7
78448;SHT31;67742;51.972;5.682;2024-03-23T11:04:31;11.2;52.7
78448;SHT31;67742;51.972;5.682;2024-03-23T11:07:01;11.2;52.6
78448;SHT31;67742;51.972;5.682;2024-03-23T11:09:41;11.3;53.7
78448;SHT31;67742;51.972;5.682;2024-03-23T11:12:27;11.3;53.9
78448;SHT31;67742;51.972;5.682;2024-03-23T11:15:00;11.3;53.5
78448;SHT31;67742;51.972;5.682;2024-03-23T11:17:29;11.4;53.6
78448;SHT31;67742;51.972;5.682;2024-03-23T11:19:59;11.4;53.6
78448;SHT31;67742;51.972;5.682;2024-03-23T11:22:41;11.5;52.6
78448;SHT31;67742;51.972;5.682;2024-03-23T11:25:14;11.5;52.2
78448;SHT31;67742;51.972;5.682;2024-03-23T11:27:44;11.5;52.8
78448;SHT31;67742;51.972;5.682;2024-03-23T11:30:15;11.5;53.5
78448;SHT31;67742;51.972;5.682;2024-03-23T11:32:46;11.5;55.8
78448;SHT31;67742;51.972;5.682;2024-03-23T11:35:29;11.5;55.6
78448;SHT31;67742;51.972;5.682;2024-03-23T11:38:07;11.6;55.6
78448;SHT31;67742;51.972;5.682;2024-03-23T11:40:37;11.6;54.3
78448;SHT31;67742;51.972;5.682;2024-03-23T11:43:08;11.6;54.3
78448;SHT31;67742;51.972;5.682;2024-03-23T11:45:39;11.7;54.0
78448;SHT31;67742;51.972;5.682;2024-03-23T11:48:10;11.7;52.4
78448;SHT31;67742;51.972;5.682;2024-03-23T11:50:41;11.7;50.6
78448;SHT31;67742;51.972;5.682;2024-03-23T11:53:20;11.8;51.6
78448;SHT31;67742;51.972;5.682;2024-03-23T11:55:50;11.8;50.4
78448;SHT31;67742;51.972;5.682;2024-03-23T11:58:20;11.7;51.7
78448;SHT31;67742;51.972;5.682;2024-03-23T12:00:55;11.7;51.7
78448;SHT31;67742;51.972;5.682;2024-03-23T12:03:25;11.7;51.7
78448;SHT31;67742;51.972;5.682;2024-03-23T12:05:55;11.7;52.4
78448;SHT31;67742;51.972;5.682;2024-03-23T12:08:29;11.7;52.4
78448;SHT31;67742;51.972;5.682;2024-03-23T12:11:07;11.6;52.4
78448;SHT31;67742;51.972;5.682;2024-03-23T12:13:36;11.6;52.8
78448;SHT31;67742;51.972;5.682;2024-03-23T12:16:11;11.6;53.0
78448;SHT31;67742;51.972;5.682;2024-03-23T12:18:42;11.7;53.9
78448;SHT31;67742;51.972;5.682;2024-03-23T12:21:11;11.7;52.5
78448;SHT31;67742;51.972;5.682;2024-03-23T12:23:41;11.8;51.0
78448;SHT31;67742;51.972;5.682;2024-03-23T12:26:10;11.8;49.9
78448;SHT31;67742;51.972;5.682;2024-03-23T12:28:39;11.8;49.9
78448;SHT31;67742;51.972;5.682;2024-03-23T12:31:10;11.9;51.1
78448;SHT31;67742;51.972;5.682;2024-03-23T12:33:38;11.9;51.3
78448;SHT31;67742;51.972;5.682;2024-03-23T12:36:09;12.0;50.1
78448;SHT31;67742;51.972;5.682;2024-03-23T12:38:38;12.1;49.6
78448;SHT31;67742;51.972;5.682;2024-03-23T12:41:06;12.2;50.9
78448;SHT31;67742;51.972;5.682;2024-03-23T12:43:36;12.2;50.1
78448;SHT31;67742;51.972;5.682;2024-03-23T12:46:04;12.2;50.3
78448;SHT31;67742;51.972;5.682;2024-03-23T12:48:34;12.2;48.4
78448;SHT31;67742;51.972;5.682;2024-03-23T12:51:03;12.2;48.2
78448;SHT31;67742;51.972;5.682;2024-03-23T12:53:32;12.2;48.3
78448;SHT31;67742;51.972;5.682;2024-03-23T12:56:00;12.1;48.7
78448;SHT31;67742;51.972;5.682;2024-03-23T12:58:29;12.2;49.9
78448;SHT31;67742;51.972;5.682;2024-03-23T13:00:59;12.2;50.3
78448;SHT31;67742;51.972;5.682;2024-03-23T13:03:28;12.2;49.8
78448;SHT31;67742;51.972;5.682;2024-03-23T13:05:57;12.3;50.2
78448;SHT31;67742;51.972;5.682;2024-03-23T13:08:26;12.4;48.6
78448;SHT31;67742;51.972;5.682;2024-03-23T13:10:54;12.4;47.3
78448;SHT31;67742;51.972;5.682;2024-03-23T13:13:23;12.4;47.7
78448;SHT31;67742;51.972;5.682;2024-03-23T13:15:52;12.4;47.3
78448;SHT31;67742;51.972;5.682;2024-03-23T13:18:20;12.4;47.9
78448;SHT31;67742;51.972;5.682;2024-03-23T13:20:49;12.3;47.9
78448;SHT31;67742;51.972;5.682;2024-03-23T13:23:17;12.3;48.3
78448;SHT31;67742;51.972;5.682;2024-03-23T13:25:52;12.3;48.5
78448;SHT31;67742;51.972;5.682;2024-03-23T13:28:21;12.2;50.1
78448;SHT31;67742;51.972;5.682;2024-03-23T13:30:54;12.2;50.0
78448;SHT31;67742;51.972;5.682;2024-03-23T13:33:25;12.1;49.7
78448;SHT31;67742;51.972;5.682;2024-03-23T13:35:55;12.1;49.5
78448;SHT31;67742;51.972;5.682;2024-03-23T13:38:25;12.1;49.6
78448;SHT31;67742;51.972;5.682;2024-03-23T13:40:55;12.0;49.8
78448;SHT31;67742;51.972;5.682;2024-03-23T13:43:25;12.0;49.5
78448;SHT31;67742;51.972;5.682;2024-03-23T13:45:57;12.0;48.5
78448;SHT31;67742;51.972;5.682;2024-03-23T13:48:27;11.9;48.0
78448;SHT31;67742;51.972;5.682;2024-03-23T13:50:59;11.9;49.0
78448;SHT31;67742;51.972;5.682;2024-03-23T13:53:28;11.8;48.6
78448;SHT31;67742;51.972;5.682;2024-03-23T13:55:56;11.8;48.4
78448;SHT31;67742;51.972;5.682;2024-03-23T13:58:25;11.7;49.8
78448;SHT31;67742;51.972;5.682;2024-03-23T14:00:56;11.6;52.5
78448;SHT31;67742;51.972;5.682;2024-03-23T14:03:25;11.5;55.0
78448;SHT31;67742;51.972;5.682;2024-03-23T14:05:57;11.4;55.7
78448;SHT31;67742;51.972;5.682;2024-03-23T14:08:31;11.3;55.8
78448;SHT31;67742;51.972;5.682;2024-03-23T14:11:02;11.2;55.2
78448;SHT31;67742;51.972;5.682;2024-03-23T14:13:32;11.2;55.6
78448;SHT31;67742;51.972;5.682;2024-03-23T14:16:01;11.2;54.6
78448;SHT31;67742;51.972;5.682;2024-03-23T14:18:30;11.2;55.2
78448;SHT31;67742;51.972;5.682;2024-03-23T14:21:00;11.2;55.1
78448;SHT31;67742;51.972;5.682;2024-03-23T14:23:30;11.1;54.4
78448;SHT31;67742;51.972;5.682;2024-03-23T14:26:00;11.1;55.3
78448;SHT31;67742;51.972;5.682;2024-03-23T14:28:29;11.1;55.8
78448;SHT31;67742;51.972;5.682;2024-03-23T14:30:58;11.0;56.3
78448;SHT31;67742;51.972;5.682;2024-03-23T14:33:27;10.9;55.9
78448;SHT31;67742;51.972;5.682;2024-03-23T14:35:56;10.9;56.5
78448;SHT31;67742;51.972;5.682;2024-03-23T14:38:25;10.8;57.0
78448;SHT31;67742;51.972;5.682;2024-03-23T14:40:59;10.8;57.2
78448;SHT31;67742;51.972;5.682;2024-03-23T14:43:29;10.8;57.2
78448;SHT31;67742;51.972;5.682;2024-03-23T14:46:08;10.8;58.2
78448;SHT31;67742;51.972;5.682;2024-03-23T14:48:37;10.8;57.9
78448;SHT31;67742;51.972;5.682;2024-03-23T14:51:06;10.9;58.0
78448;SHT31;67742;51.972;5.682;2024-03-23T14:53:36;10.9;56.7
78448;SHT31;67742;51.972;5.682;2024-03-23T14:56:07;10.9;56.9
78448;SHT31;67742;51.972;5.682;2024-03-23T14:58:38;10.9;56.9
78448;SHT31;67742;51.972;5.682;2024-03-23T15:01:08;11.0;56.8
78448;SHT31;67742;51.972;5.682;2024-03-23T15:03:37;11.0;56.7
78448;SHT31;67742;51.972;5.682;2024-03-23T15:06:07;11.0;57.0
78448;SHT31;67742;51.972;5.682;2024-03-23T15:08:35;11.0;57.7
78448;SHT31;67742;51.972;5.682;2024-03-23T15:11:06;11.1;58.2
78448;SHT31;67742;51.972;5.682;2024-03-23T15:13:37;11.1;56.5
78448;SHT31;67742;51.972;5.682;2024-03-23T15:16:06;11.2;57.0
78448;SHT31;67742;51.972;5.682;2024-03-23T15:18:36;11.2;54.9
78448;SHT31;67742;51.972;5.682;2024-03-23T15:21:05;11.3;55.2
78448;SHT31;67742;51.972;5.682;2024-03-23T15:23:37;11.3;55.7
78448;SHT31;67742;51.972;5.682;2024-03-23T15:26:05;11.3;54.6
78448;SHT31;67742;51.972;5.682;2024-03-23T15:28:34;11.4;53.2
78448;SHT31;67742;51.972;5.682;2024-03-23T15:31:16;11.4;54.1
78448;SHT31;67742;51.972;5.682;2024-03-23T15:33:47;11.4;53.5
78448;SHT31;67742;51.972;5.682;2024-03-23T15:36:15;11.4;51.9
78448;SHT31;67742;51.972;5.682;2024-03-23T15:38:44;11.4;50.8
78448;SHT31;67742;51.972;5.682;2024-03-23T15:41:14;11.4;49.5
78448;SHT31;67742;51.972;5.682;2024-03-23T15:43:43;11.3;49.7
78448;SHT31;67742;51.972;5.682;2024-03-23T15:46:12;11.3;50.0
78448;SHT31;67742;51.972;5.682;2024-03-23T15:48:41;11.3;50.3
78448;SHT31;67742;51.972;5.682;2024-03-23T15:51:13;11.2;51.0
78448;SHT31;67742;51.972;5.682;2024-03-23T15:53:42;11.2;51.1
78448;SHT31;67742;51.972;5.682;2024-03-23T15:56:10;11.2;51.3
78448;SHT31;67742;51.972;5.682;2024-03-23T15:58:39;11.2;52.4
78448;SHT31;67742;51.972;5.682;2024-03-23T16:01:08;11.2;53.3
78448;SHT31;67742;51.972;5.682;2024-03-23T16:03:38;11.2;52.5
78448;SHT31;67742;51.972;5.682;2024-03-23T16:06:07;11.2;51.8
78448;SHT31;67742;51.972;5.682;2024-03-23T16:08:36;11.2;51.8
78448;SHT31;67742;51.972;5.682;2024-03-23T16:11:06;11.2;52.2
78448;SHT31;67742;51.972;5.682;2024-03-23T16:13:35;11.1;52.5
78448;SHT31;67742;51.972;5.682;2024-03-23T16:16:04;11.1;52.7
78448;SHT31;67742;51.972;5.682;2024-03-23T16:18:34;11.1;53.6
78448;SHT31;67742;51.972;5.682;2024-03-23T16:21:04;11.1;53.5
78448;SHT31;67742;51.972;5.682;2024-03-23T16:23:34;11.1;53.8
78448;SHT31;67742;51.972;5.682;2024-03-23T16:26:04;11.1;53.9
78448;SHT31;67742;51.972;5.682;2024-03-23T16:28:34;11.1;54.4
78448;SHT31;67742;51.972;5.682;2024-03-23T16:31:05;11.1;53.5
78448;SHT31;67742;51.972;5.682;2024-03-23T16:33:36;11.1;54.0
78448;SHT31;67742;51.972;5.682;2024-03-23T16:36:06;11.1;54.7
78448;SHT31;67742;51.972;5.682;2024-03-23T16:38:36;11.1;54.7
78448;SHT31;67742;51.972;5.682;2024-03-23T16:41:06;11.1;55.2
78448;SHT31;67742;51.972;5.682;2024-03-23T16:43:36;11.1;54.6
78448;SHT31;67742;51.972;5.682;2024-03-23T16:46:07;11.1;54.5
78448;SHT31;67742;51.972;5.682;2024-03-23T16:48:38;11.1;54.2
78448;SHT31;67742;51.972;5.682;2024-03-23T16:51:08;11.1;53.7
78448;SHT31;67742;51.972;5.682;2024-03-23T16:53:37;11.0;53.3
78448;SHT31;67742;51.972;5.682;2024-03-23T16:56:08;11.0;53.5
78448;SHT31;67742;51.972;5.682;2024-03-23T16:58:37;11.0;53.4
78448;SHT31;67742;51.972;5.682;2024-03-23T17:01:08;11.0;53.2
78448;SHT31;67742;51.972;5.682;2024-03-23T17:03:45;10.9;53.3
78448;SHT31;67742;51.972;5.682;2024-03-23T17:06:14;10.9;53.6
78448;SHT31;67742;51.972;5.682;2024-03-23T17:08:45;10.9;54.0
78448;SHT31;67742;51.972;5.682;2024-03-23T17:11:15;10.9;53.9
78448;SHT31;67742;51.972;5.682;2024-03-23T17:13:45;10.9;53.8